sensor_id;sensor_type;location;lat;lon;timestamp;pressure;altitude;pressure_sealevel;temperature;humidity
13734;BME280;43298;52.560;13.508;2023-04-01T00:00:28;99039.16;;;9.84;100.00
13734;BME280;43298;52.560;13.508;2023-04-01T00:02:54;99033.41;;;9.81;100.00
13734;BME280;43298;52.560;13.508;2023-04-01T00:05:20;99035.97;;;9.81;100.00
13734;BME280;43298;52.560;13.508;2023-04-01T00:07:46;99038.56;;;9.81;100.00
13734;BME280;43298;52.560;13.508;2023-04-01T00:10:13;99038.56;;;9.81;100.00
13734;BME280;43298;52.560;13.508;2023-04-01T00:12:40;99035.88;;;9.82;100.00
13734;BME280;43298;52.560;13.508;2023-04-01T00:15:10;99035.78;;;9.84;100.00
13734;BME280;43298;52.560;13.508;2023-04-01T00:17:36;99036.78;;;9.81;100.00
13734;BME280;43298;52.560;13.508;2023-04-01T00:20:03;99030.72;;;9.82;100.00
13734;BME280;43298;52.560;13.508;2023-04-01T00:22:29;99036.91;;;9.80;100.00
13734;BME280;43298;52.560;13.508;2023-04-01T00:24:55;99042.78;;;9.82;100.00
13734;BME280;43298;52.560;13.508;2023-04-01T00:27:21;99037.72;;;9.80;100.00
13734;BME280;43298;52.560;13.508;2023-04-01T00:29:47;99033.59;;;9.78;100.00
13734;BME280;43298;52.560;13.508;2023-04-01T00:32:14;99035.34;;;9.77;100.00
13734;BME280;43298;52.560;13.508;2023-04-01T00:34:40;99030.16;;;9.77;100.00
13734;BME280;43298;52.560;13.508;2023-04-01T00:37:07;99030.16;;;9.77;100.00
13734;BME280;43298;52.560;13.508;2023-04-01T00:39:34;99026.59;;;9.80;100.00
13734;BME280;43298;52.560;13.508;2023-04-01T00:42:01;99025.84;;;9.78;100.00
13734;BME280;43298;52.560;13.508;2023-04-01T00:44:31;99026.69;;;9.78;100.00
13734;BME280;43298;52.560;13.508;2023-04-01T00:46:59;99026.78;;;9.77;100.00
13734;BME280;43298;52.560;13.508;2023-04-01T00:49:30;99028.44;;;9.78;100.00
13734;BME280;43298;52.560;13.508;2023-04-01T00:51:58;99031.94;;;9.77;100.00
13734;BME280;43298;52.560;13.508;2023-04-01T00:54:25;99002.72;;;9.76;100.00
13734;BME280;43298;52.560;13.508;2023-04-01T00:59:34;98995.16;;;9.73;100.00
13734;BME280;43298;52.560;13.508;2023-04-01T01:02:02;98992.50;;;9.75;100.00
13734;BME280;43298;52.560;13.508;2023-04-01T01:04:32;98996.72;;;9.76;100.00
13734;BME280;43298;52.560;13.508;2023-04-01T01:15:26;98992.50;;;9.75;100.00
13734;BME280;43298;52.560;13.508;2023-04-01T01:18:57;98997.66;;;9.75;100.00
13734;BME280;43298;52.560;13.508;2023-04-01T01:24:20;99002.31;;;9.70;100.00
13734;BME280;43298;52.560;13.508;2023-04-01T01:27:11;98998.97;;;9.68;100.00
13734;BME280;43298;52.560;13.508;2023-04-01T01:35:43;98997.84;;;9.72;100.00
13734;BME280;43298;52.560;13.508;2023-04-01T01:38:15;99003.00;;;9.72;100.00
13734;BME280;43298;52.560;13.508;2023-04-01T01:40:46;99002.91;;;9.73;100.00
13734;BME280;43298;52.560;13.508;2023-04-01T01:43:16;99002.81;;;9.75;100.00
13734;BME280;43298;52.560;13.508;2023-04-01T01:45:49;99002.81;;;9.75;100.00
13734;BME280;43298;52.560;13.508;2023-04-01T01:48:17;98997.66;;;9.75;100.00
13734;BME280;43298;52.560;13.508;2023-04-01T01:50:45;99003.75;;;9.74;100.00
13734;BME280;43298;52.560;13.508;2023-04-01T01:53:13;99001.16;;;9.74;100.00
13734;BME280;43298;52.560;13.508;2023-04-01T01:55:43;98995.38;;;9.70;100.00
13734;BME280;43298;52.560;13.508;2023-04-01T02:00:57;99004.69;;;9.73;100.00
13734;BME280;43298;52.560;13.508;2023-04-01T02:03:26;99010.66;;;9.73;100.00
13734;BME280;43298;52.560;13.508;2023-04-01T02:05:56;99014.06;;;9.74;100.00
13734;BME280;43298;52.560;13.508;2023-04-01T02:08:36;99013.25;;;9.73;100.00
13734;BME280;43298;52.560;13.508;2023-04-01T02:11:13;99027.38;;;9.68;100.00
13734;BME280;43298;52.560;13.508;2023-04-01T02:13:53;99022.75;;;9.73;100.00
13734;BME280;43298;52.560;13.508;2023-04-01T02:16:59;99020.97;;;9.73;100.00
13734;BME280;43298;52.560;13.508;2023-04-01T02:19:44;99024.19;;;9.77;100.00
13734;BME280;43298;52.560;13.508;2023-04-01T02:22:16;99027.59;;;9.77;100.00
13734;BME280;43298;52.560;13.508;2023-04-01T02:24:43;99030.28;;;9.76;100.00
13734;BME280;43298;52.560;13.508;2023-04-01T02:27:12;99024.19;;;9.77;100.00
13734;BME280;43298;52.560;13.508;2023-04-01T02:29:38;99025.09;;;9.76;100.00
13734;BME280;43298;52.560;13.508;2023-04-01T02:32:04;99025.84;;;9.78;100.00
13734;BME280;43298;52.560;13.508;2023-04-01T02:34:31;99029.38;;;9.77;100.00
13734;BME280;43298;52.560;13.508;2023-04-01T02:36:58;99031.00;;;9.78;100.00
13734;BME280;43298;52.560;13.508;2023-04-01T02:39:24;99031.94;;;9.77;100.00
13734;BME280;43298;52.560;13.508;2023-04-01T02:41:52;99035.44;;;9.76;100.00
13734;BME280;43298;52.560;13.508;2023-04-01T02:44:18;99040.50;;;9.77;100.00
13734;BME280;43298;52.560;13.508;2023-04-01T02:46:44;99034.81;;;9.72;100.00
13734;BME280;43298;52.560;13.508;2023-04-01T02:49:10;99037.31;;;9.74;100.00
13734;BME280;43298;52.560;13.508;2023-04-01T02:51:35;99040.72;;;9.74;100.00
13734;BME280;43298;52.560;13.508;2023-04-01T02:54:01;99044.22;;;9.73;100.00
13734;BME280;43298;52.560;13.508;2023-04-01T02:56:27;99044.31;;;9.72;100.00
13734;BME280;43298;52.560;13.508;2023-04-01T02:58:54;99045.25;;;9.71;100.00
13734;BME280;43298;52.560;13.508;2023-04-01T03:01:20;99046.78;;;9.73;100.00
13734;BME280;43298;52.560;13.508;2023-04-01T03:03:46;99047.63;;;9.74;100.00
13734;BME280;43298;52.560;13.508;2023-04-01T03:06:14;99051.16;;;9.73;100.00
13734;BME280;43298;52.560;13.508;2023-04-01T03:08:41;99053.81;;;9.71;100.00
13734;BME280;43298;52.560;13.508;2023-04-01T03:11:07;99051.16;;;9.73;100.00
13734;BME280;43298;52.560;13.508;2023-04-01T03:13:33;99054.72;;;9.70;100.00
13734;BME280;43298;52.560;13.508;2023-04-01T03:15:59;99051.16;;;9.73;100.00
13734;BME280;43298;52.560;13.508;2023-04-01T03:18:24;99045.34;;;9.69;100.00
13734;BME280;43298;52.560;13.508;2023-04-01T03:20:50;99052.25;;;9.69;100.00
13734;BME280;43298;52.560;13.508;2023-04-01T03:23:16;99050.50;;;9.69;100.00
13734;BME280;43298;52.560;13.508;2023-04-01T03:25:45;99057.31;;;9.70;100.00
13734;BME280;43298;52.560;13.508;2023-04-01T03:28:11;99056.69;;;9.67;100.00
13734;BME280;43298;52.560;13.508;2023-04-01T03:30:37;99061.84;;;9.67;100.00
13734;BME280;43298;52.560;13.508;2023-04-01T03:33:03;99054.13;;;9.67;100.00
13734;BME280;43298;52.560;13.508;2023-04-01T03:35:29;99057.53;;;9.67;100.00
13734;BME280;43298;52.560;13.508;2023-04-01T03:37:55;99059.19;;;9.68;100.00
13734;BME280;43298;52.560;13.508;2023-04-01T03:40:22;99063.50;;;9.68;100.00
13734;BME280;43298;52.560;13.508;2023-04-01T03:42:48;99066.28;;;9.65;100.00
13734;BME280;43298;52.560;13.508;2023-04-01T03:45:14;99067.03;;;9.67;100.00
13734;BME280;43298;52.560;13.508;2023-04-01T03:47:40;99074.75;;;9.67;100.00
13734;BME280;43298;52.560;13.508;2023-04-01T03:50:07;99073.81;;;9.68;100.00
13734;BME280;43298;52.560;13.508;2023-04-01T03:52:34;99074.66;;;9.68;100.00
13734;BME280;43298;52.560;13.508;2023-04-01T03:55:01;99079.91;;;9.67;100.00
13734;BME280;43298;52.560;13.508;2023-04-01T03:57:27;99080.84;;;9.66;100.00
13734;BME280;43298;52.560;13.508;2023-04-01T03:59:53;99079.00;;;9.68;100.00
13734;BME280;43298;52.560;13.508;2023-04-01T04:02:19;99081.56;;;9.68;100.00
13734;BME280;43298;52.560;13.508;2023-04-01T04:04:45;99089.22;;;9.69;100.00
13734;BME280;43298;52.560;13.508;2023-04-01T04:07:12;99089.22;;;9.69;100.00
13734;BME280;43298;52.560;13.508;2023-04-01T04:09:38;99090.75;;;9.72;100.00
13734;BME280;43298;52.560;13.508;2023-04-01T04:12:04;99090.16;;;9.68;100.00
13734;BME280;43298;52.560;13.508;2023-04-01T04:14:31;99088.38;;;9.69;100.00
13734;BME280;43298;52.560;13.508;2023-04-01T04:16:57;99092.53;;;9.71;100.00
13734;BME280;43298;52.560;13.508;2023-04-01T04:19:23;99089.03;;;9.72;100.00
13734;BME280;43298;52.560;13.508;2023-04-01T04:21:49;99091.59;;;9.72;100.00
13734;BME280;43298;52.560;13.508;2023-04-01T04:24:15;99100.91;;;9.75;100.00
13734;BME280;43298;52.560;13.508;2023-04-01T04:26:40;99104.59;;;9.71;100.00
13734;BME280;43298;52.560;13.508;2023-04-01T04:29:06;99101.28;;;9.69;100.00
13734;BME280;43298;52.560;13.508;2023-04-01T04:31:32;99104.59;;;9.71;100.00
13734;BME280;43298;52.560;13.508;2023-04-01T04:34:00;99108.13;;;9.70;100.00
13734;BME280;43298;52.560;13.508;2023-04-01T04:36:28;99111.41;;;9.72;100.00
13734;BME280;43298;52.560;13.508;2023-04-01T04:38:54;99107.84;;;9.74;100.00
13734;BME280;43298;52.560;13.508;2023-04-01T04:41:20;99117.13;;;9.77;100.00
13734;BME280;43298;52.560;13.508;2023-04-01T04:43:55;99114.53;;;9.77;100.00
13734;BME280;43298;52.560;13.508;2023-04-01T04:46:22;99122.19;;;9.78;100.00
13734;BME280;43298;52.560;13.508;2023-04-01T04:48:48;99117.03;;;9.78;100.00
13734;BME280;43298;52.560;13.508;2023-04-01T04:51:16;99124.69;;;9.80;100.00
13734;BME280;43298;52.560;13.508;2023-04-01T04:53:42;99121.97;;;9.81;100.00
13734;BME280;43298;52.560;13.508;2023-04-01T04:56:08;99126.13;;;9.84;100.00
13734;BME280;43298;52.560;13.508;2023-04-01T04:58:34;99127.03;;;9.83;100.00
13734;BME280;43298;52.560;13.508;2023-04-01T05:01:08;99132.09;;;9.84;100.00
13734;BME280;43298;52.560;13.508;2023-04-01T05:03:34;99132.41;;;9.80;100.00
13734;BME280;43298;52.560;13.508;2023-04-01T05:06:00;99132.53;;;9.78;100.00
13734;BME280;43298;52.560;13.508;2023-04-01T05:08:25;99134.25;;;9.78;100.00
13734;BME280;43298;52.560;13.508;2023-04-01T05:10:51;99129.84;;;9.80;100.00
13734;BME280;43298;52.560;13.508;2023-04-01T05:13:17;99139.13;;;9.82;100.00
13734;BME280;43298;52.560;13.508;2023-04-01T05:15:42;99135.81;;;9.80;100.00
13734;BME280;43298;52.560;13.508;2023-04-01T05:18:08;99139.41;;;9.78;100.00
13734;BME280;43298;52.560;13.508;2023-04-01T05:20:34;99139.41;;;9.78;100.00
13734;BME280;43298;52.560;13.508;2023-04-01T05:23:00;99142.84;;;9.78;100.00
13734;BME280;43298;52.560;13.508;2023-04-01T05:25:26;99143.84;;;9.76;100.00
13734;BME280;43298;52.560;13.508;2023-04-01T05:27:52;99144.59;;;9.78;100.00
13734;BME280;43298;52.560;13.508;2023-04-01T05:30:19;99156.88;;;9.74;100.00
13734;BME280;43298;52.560;13.508;2023-04-01T05:32:45;99152.53;;;9.75;100.00
13734;BME280;43298;52.560;13.508;2023-04-01T05:35:11;99161.00;;;9.77;100.00
13734;BME280;43298;52.560;13.508;2023-04-01T05:37:37;99157.31;;;9.81;100.00
13734;BME280;43298;52.560;13.508;2023-04-01T05:40:04;99156.56;;;9.79;100.00
13734;BME280;43298;52.560;13.508;2023-04-01T05:42:30;99160.91;;;9.78;100.00
13734;BME280;43298;52.560;13.508;2023-04-01T05:44:56;99160.06;;;9.78;100.00
13734;BME280;43298;52.560;13.508;2023-04-01T05:47:22;99156.75;;;9.76;100.00
13734;BME280;43298;52.560;13.508;2023-04-01T05:49:48;99158.53;;;9.75;100.00
13734;BME280;43298;52.560;13.508;2023-04-01T05:52:14;99157.69;;;9.75;100.00
13734;BME280;43298;52.560;13.508;2023-04-01T05:54:40;99166.06;;;9.78;100.00
13734;BME280;43298;52.560;13.508;2023-04-01T05:57:05;99167.81;;;9.78;100.00
13734;BME280;43298;52.560;13.508;2023-04-01T05:59:31;99169.47;;;9.79;100.00
13734;BME280;43298;52.560;13.508;2023-04-01T06:01:57;99175.91;;;9.86;100.00
13734;BME280;43298;52.560;13.508;2023-04-01T06:04:24;99166.50;;;9.85;100.00
13734;BME280;43298;52.560;13.508;2023-04-01T06:06:51;99180.25;;;9.85;100.00
13734;BME280;43298;52.560;13.508;2023-04-01T06:09:27;99181.06;;;9.86;100.00
13734;BME280;43298;52.560;13.508;2023-04-01T06:12:10;99181.06;;;9.86;100.00
13734;BME280;43298;52.560;13.508;2023-04-01T06:15:33;99183.75;;;9.84;100.00
13734;BME280;43298;52.560;13.508;2023-04-01T06:30:41;99214.16;;;9.93;100.00
13734;BME280;43298;52.560;13.508;2023-04-01T06:36:35;99210.44;;;9.97;100.00
13734;BME280;43298;52.560;13.508;2023-04-01T06:50:36;99227.06;;;10.07;100.00
13734;BME280;43298;52.560;13.508;2023-04-01T06:53:56;99230.63;;;10.05;100.00
13734;BME280;43298;52.560;13.508;2023-04-01T06:56:28;99230.34;;;10.09;100.00
13734;BME280;43298;52.560;13.508;2023-04-01T06:59:38;99229.88;;;10.17;100.00
13734;BME280;43298;52.560;13.508;2023-04-01T07:04:40;99230.28;;;10.23;100.00
13734;BME280;43298;52.560;13.508;2023-04-01T07:07:40;99232.88;;;10.23;100.00
13734;BME280;43298;52.560;13.508;2023-04-01T07:13:06;99237.47;;;10.32;100.00
13734;BME280;43298;52.560;13.508;2023-04-01T07:15:43;99248.13;;;10.40;100.00
13734;BME280;43298;52.560;13.508;2023-04-01T07:18:24;99247.84;;;10.45;100.00
13734;BME280;43298;52.560;13.508;2023-04-01T07:20:54;99244.09;;;10.36;100.00
13734;BME280;43298;52.560;13.508;2023-04-01T07:23:38;99251.13;;;10.47;100.00
13734;BME280;43298;52.560;13.508;2023-04-01T07:26:31;99241.03;;;10.44;100.00
13734;BME280;43298;52.560;13.508;2023-04-01T07:28:57;99256.91;;;10.38;100.00
13734;BME280;43298;52.560;13.508;2023-04-01T07:31:51;99258.44;;;10.28;100.00
13734;BME280;43298;52.560;13.508;2023-04-01T07:34:26;99260.81;;;10.31;100.00
13734;BME280;43298;52.560;13.508;2023-04-01T07:46:01;99277.53;;;10.25;100.00
13734;BME280;43298;52.560;13.508;2023-04-01T07:48:53;99276.94;;;10.08;100.00
13734;BME280;43298;52.560;13.508;2023-04-01T07:51:40;99286.34;;;9.95;100.00
13734;BME280;43298;52.560;13.508;2023-04-01T08:00:11;99289.31;;;9.75;100.00
13734;BME280;43298;52.560;13.508;2023-04-01T08:03:29;99294.31;;;9.64;100.00
13734;BME280;43298;52.560;13.508;2023-04-01T08:06:06;99303.91;;;9.48;100.00
13734;BME280;43298;52.560;13.508;2023-04-01T08:14:54;99308.31;;;9.60;100.00
13734;BME280;43298;52.560;13.508;2023-04-01T08:20:23;99313.84;;;9.54;100.00
13734;BME280;43298;52.560;13.508;2023-04-01T08:23:12;99317.78;;;9.31;100.00
13734;BME280;43298;52.560;13.508;2023-04-01T08:25:50;99324.16;;;9.40;100.00
13734;BME280;43298;52.560;13.508;2023-04-01T08:33:38;99328.94;;;9.17;100.00
13734;BME280;43298;52.560;13.508;2023-04-01T08:36:41;99339.63;;;9.25;100.00
13734;BME280;43298;52.560;13.508;2023-04-01T08:39:20;99340.47;;;9.26;100.00
13734;BME280;43298;52.560;13.508;2023-04-01T08:48:12;99347.34;;;9.25;100.00
13734;BME280;43298;52.560;13.508;2023-04-01T09:00:32;99358.47;;;9.12;100.00
13734;BME280;43298;52.560;13.508;2023-04-01T09:06:07;99366.31;;;9.10;100.00
13734;BME280;43298;52.560;13.508;2023-04-01T09:09:34;99367.25;;;9.23;100.00
13734;BME280;43298;52.560;13.508;2023-04-01T09:35:03;99398.91;;;9.11;100.00
13734;BME280;43298;52.560;13.508;2023-04-01T09:43:29;99410.91;;;9.12;100.00
13734;BME280;43298;52.560;13.508;2023-04-01T09:51:58;99426.47;;;8.95;100.00
13734;BME280;43298;52.560;13.508;2023-04-01T09:54:55;99426.25;;;8.84;100.00
13734;BME280;43298;52.560;13.508;2023-04-01T10:27:38;99466.41;;;8.73;100.00
13734;BME280;43298;52.560;13.508;2023-04-01T10:36:57;99479.38;;;8.71;100.00
13734;BME280;43298;52.560;13.508;2023-04-01T10:52:22;99490.00;;;8.81;100.00
13734;BME280;43298;52.560;13.508;2023-04-01T11:01:07;99483.03;;;8.83;100.00
13734;BME280;43298;52.560;13.508;2023-04-01T11:19:25;99506.41;;;8.80;100.00
13734;BME280;43298;52.560;13.508;2023-04-01T11:28:35;99511.63;;;8.94;100.00
13734;BME280;43298;52.560;13.508;2023-04-01T11:40:06;99514.72;;;8.69;100.00
13734;BME280;43298;52.560;13.508;2023-04-01T11:48:36;99523.19;;;8.71;100.00
13734;BME280;43298;52.560;13.508;2023-04-01T12:12:54;99548.84;;;8.57;100.00
13734;BME280;43298;52.560;13.508;2023-04-01T12:15:55;99546.91;;;8.45;100.00
13734;BME280;43298;52.560;13.508;2023-04-01T12:30:36;99561.09;;;8.37;100.00
13734;BME280;43298;52.560;13.508;2023-04-01T13:03:16;99593.44;;;8.08;100.00
13734;BME280;43298;52.560;13.508;2023-04-01T13:06:10;99591.19;;;8.19;100.00
13734;BME280;43298;52.560;13.508;2023-04-01T13:17:22;99604.78;;;8.04;100.00
13734;BME280;43298;52.560;13.508;2023-04-01T13:20:27;99604.28;;;8.15;100.00
13734;BME280;43298;52.560;13.508;2023-04-01T13:26:34;99612.69;;;8.01;100.00
13734;BME280;43298;52.560;13.508;2023-04-01T13:29:08;99616.44;;;8.11;100.00
13734;BME280;43298;52.560;13.508;2023-04-01T13:37:25;99634.56;;;7.93;100.00
13734;BME280;43298;52.560;13.508;2023-04-01T13:40:26;99631.19;;;7.74;100.00
13734;BME280;43298;52.560;13.508;2023-04-01T13:42:57;99634.31;;;7.80;100.00
13734;BME280;43298;52.560;13.508;2023-04-01T13:46:06;99635.38;;;7.93;100.00
13734;BME280;43298;52.560;13.508;2023-04-01T14:00:55;99642.09;;;7.79;100.00
13734;BME280;43298;52.560;13.508;2023-04-01T14:03:53;99650.88;;;7.75;100.00
13734;BME280;43298;52.560;13.508;2023-04-01T14:09:49;99657.53;;;7.79;100.00
13734;BME280;43298;52.560;13.508;2023-04-01T14:12:29;99662.31;;;7.86;100.00
13734;BME280;43298;52.560;13.508;2023-04-01T14:20:29;99671.22;;;7.79;100.00
13734;BME280;43298;52.560;13.508;2023-04-01T14:23:23;99673.94;;;7.76;100.00
13734;BME280;43298;52.560;13.508;2023-04-01T14:41:05;99693.84;;;7.54;100.00
13734;BME280;43298;52.560;13.508;2023-04-01T14:49:30;99702.69;;;7.49;100.00
13734;BME280;43298;52.560;13.508;2023-04-01T14:52:28;99704.72;;;7.42;100.00
13734;BME280;43298;52.560;13.508;2023-04-01T14:54:52;99716.97;;;7.37;100.00
13734;BME280;43298;52.560;13.508;2023-04-01T15:00:15;99716.25;;;7.34;100.00
13734;BME280;43298;52.560;13.508;2023-04-01T15:03:48;99713.00;;;7.30;100.00
13734;BME280;43298;52.560;13.508;2023-04-01T15:09:08;99723.63;;;7.41;100.00
13734;BME280;43298;52.560;13.508;2023-04-01T15:26:13;99745.16;;;7.20;100.00
13734;BME280;43298;52.560;13.508;2023-04-01T15:34:44;99747.91;;;7.16;100.00
13734;BME280;43298;52.560;13.508;2023-04-01T15:37:23;99756.84;;;7.27;100.00
13734;BME280;43298;52.560;13.508;2023-04-01T15:55:11;99775.88;;;7.03;100.00
13734;BME280;43298;52.560;13.508;2023-04-01T15:57:56;99776.06;;;6.99;100.00
13734;BME280;43298;52.560;13.508;2023-04-01T16:03:39;99783.09;;;6.95;100.00
13734;BME280;43298;52.560;13.508;2023-04-01T16:08:52;99795.41;;;6.87;100.00
13734;BME280;43298;52.560;13.508;2023-04-01T16:11:55;99801.56;;;6.83;100.00
13734;BME280;43298;52.560;13.508;2023-04-01T16:14:39;99804.25;;;6.80;100.00
13734;BME280;43298;52.560;13.508;2023-04-01T16:18:07;99813.72;;;6.80;100.00
13734;BME280;43298;52.560;13.508;2023-04-01T16:20:52;99819.03;;;6.75;100.00
13734;BME280;43298;52.560;13.508;2023-04-01T16:23:34;99834.00;;;6.66;100.00
13734;BME280;43298;52.560;13.508;2023-04-01T16:26:31;99835.97;;;6.59;100.00
13734;BME280;43298;52.560;13.508;2023-04-01T16:44:29;99848.22;;;6.53;100.00
13734;BME280;43298;52.560;13.508;2023-04-01T16:46:44;99860.47;;;6.46;100.00
13734;BME280;43298;52.560;13.508;2023-04-01T16:55:03;99878.22;;;6.52;100.00
13734;BME280;43298;52.560;13.508;2023-04-01T16:57:56;99883.91;;;6.37;100.00
13734;BME280;43298;52.560;13.508;2023-04-01T17:00:39;99881.53;;;6.33;100.00
13734;BME280;43298;52.560;13.508;2023-04-01T17:06:07;99891.88;;;6.31;100.00
13734;BME280;43298;52.560;13.508;2023-04-01T17:08:54;99905.03;;;6.22;100.00
13734;BME280;43298;52.560;13.508;2023-04-01T17:11:40;99912.03;;;6.18;100.00
13734;BME280;43298;52.560;13.508;2023-04-01T17:46:02;99986.44;;;5.69;100.00
13734;BME280;43298;52.560;13.508;2023-04-01T17:51:52;99987.06;;;5.51;100.00
13734;BME280;43298;52.560;13.508;2023-04-01T17:54:28;99992.16;;;5.53;100.00
13734;BME280;43298;52.560;13.508;2023-04-01T18:00:12;99991.34;;;5.51;100.00
13734;BME280;43298;52.560;13.508;2023-04-01T18:03:05;100000.97;;;5.44;100.00
13734;BME280;43298;52.560;13.508;2023-04-01T18:20:34;100033.94;;;5.29;100.00
13734;BME280;43298;52.560;13.508;2023-04-01T18:25:41;100047.72;;;5.26;100.00
13734;BME280;43298;52.560;13.508;2023-04-01T18:39:46;100070.91;;;5.22;100.00
13734;BME280;43298;52.560;13.508;2023-04-01T18:42:31;100072.06;;;5.12;100.00
13734;BME280;43298;52.560;13.508;2023-04-01T18:51:36;100100.25;;;5.12;100.00
13734;BME280;43298;52.560;13.508;2023-04-01T18:54:30;100108.03;;;5.09;100.00
13734;BME280;43298;52.560;13.508;2023-04-01T18:57:16;100108.75;;;5.14;100.00
13734;BME280;43298;52.560;13.508;2023-04-01T19:00:26;100117.56;;;5.04;100.00
13734;BME280;43298;52.560;13.508;2023-04-01T19:03:16;100125.28;;;5.04;100.00
13734;BME280;43298;52.560;13.508;2023-04-01T19:05:47;100128.63;;;5.06;100.00
13734;BME280;43298;52.560;13.508;2023-04-01T19:08:35;100128.81;;;5.00;100.00
13734;BME280;43298;52.560;13.508;2023-04-01T19:11:43;100135.72;;;4.96;100.00
13734;BME280;43298;52.560;13.508;2023-04-01T19:24:19;100150.56;;;4.85;100.00
13734;BME280;43298;52.560;13.508;2023-04-01T19:46:37;100189.47;;;4.67;100.00
13734;BME280;43298;52.560;13.508;2023-04-01T19:49:48;100187.00;;;4.64;100.00
13734;BME280;43298;52.560;13.508;2023-04-01T19:52:35;100199.81;;;4.63;100.00
13734;BME280;43298;52.560;13.508;2023-04-01T19:58:32;100207.56;;;4.61;100.00
13734;BME280;43298;52.560;13.508;2023-04-01T20:01:00;100210.91;;;4.63;100.00
13734;BME280;43298;52.560;13.508;2023-04-01T20:03:54;100214.44;;;4.59;100.00
13734;BME280;43298;52.560;13.508;2023-04-01T20:07:09;100220.41;;;4.60;100.00
13734;BME280;43298;52.560;13.508;2023-04-01T20:15:43;100241.94;;;4.53;100.00
13734;BME280;43298;52.560;13.508;2023-04-01T20:21:36;100257.38;;;4.50;100.00
13734;BME280;43298;52.560;13.508;2023-04-01T20:27:24;100266.06;;;4.43;100.00
13734;BME280;43298;52.560;13.508;2023-04-01T20:36:36;100276.50;;;4.34;100.00
13734;BME280;43298;52.560;13.508;2023-04-01T20:42:29;100288.59;;;4.29;100.00
13734;BME280;43298;52.560;13.508;2023-04-01T20:50:41;100300.56;;;4.27;100.00
13734;BME280;43298;52.560;13.508;2023-04-01T20:53:29;100298.94;;;4.23;100.00
13734;BME280;43298;52.560;13.508;2023-04-01T20:59:08;100310.13;;;4.19;100.00
13734;BME280;43298;52.560;13.508;2023-04-01T21:07:41;100317.06;;;4.15;100.00
13734;BME280;43298;52.560;13.508;2023-04-01T21:10:43;100323.06;;;4.13;100.00
13734;BME280;43298;52.560;13.508;2023-04-01T21:25:21;100351.34;;;4.07;100.00
13734;BME280;43298;52.560;13.508;2023-04-01T21:56:41;100394.31;;;3.91;100.00
13734;BME280;43298;52.560;13.508;2023-04-01T22:03:10;100402.94;;;3.87;100.00
13734;BME280;43298;52.560;13.508;2023-04-01T22:09:11;100402.03;;;3.88;100.00
13734;BME280;43298;52.560;13.508;2023-04-01T22:11:59;100413.94;;;3.89;100.00
13734;BME280;43298;52.560;13.508;2023-04-01T22:15:18;100422.44;;;3.91;100.00
13734;BME280;43298;52.560;13.508;2023-04-01T22:17:54;100421.63;;;3.89;100.00
13734;BME280;43298;52.560;13.508;2023-04-01T22:20:56;100423.41;;;3.86;100.00
13734;BME280;43298;52.560;13.508;2023-04-01T22:29:38;100433.63;;;3.86;100.00
13734;BME280;43298;52.560;13.508;2023-04-01T22:32:34;100443.91;;;3.84;100.00
13734;BME280;43298;52.560;13.508;2023-04-01T22:35:33;100437.91;;;3.85;100.00
13734;BME280;43298;52.560;13.508;2023-04-01T22:41:05;100446.47;;;3.83;100.00
13734;BME280;43298;52.560;13.508;2023-04-01T22:43:44;100449.88;;;3.85;100.00
13734;BME280;43298;52.560;13.508;2023-04-01T22:46:20;100454.16;;;3.83;100.00
13734;BME280;43298;52.560;13.508;2023-04-01T22:49:08;100459.22;;;3.86;100.00
13734;BME280;43298;52.560;13.508;2023-04-01T22:51:43;100455.81;;;3.84;100.00
13734;BME280;43298;52.560;13.508;2023-04-01T22:54:44;100466.88;;;3.86;100.00
13734;BME280;43298;52.560;13.508;2023-04-01T23:00:25;100468.63;;;3.84;100.00
13734;BME280;43298;52.560;13.508;2023-04-01T23:05:52;100482.19;;;3.87;100.00
13734;BME280;43298;52.560;13.508;2023-04-01T23:11:14;100492.50;;;3.83;100.00
13734;BME280;43298;52.560;13.508;2023-04-01T23:20:03;100499.34;;;3.81;100.00
13734;BME280;43298;52.560;13.508;2023-04-01T23:23:01;100500.22;;;3.81;100.00
13734;BME280;43298;52.560;13.508;2023-04-01T23:28:51;100514.78;;;3.78;100.00
13734;BME280;43298;52.560;13.508;2023-04-01T23:31:47;100507.94;;;3.77;100.00
13734;BME280;43298;52.560;13.508;2023-04-01T23:36:51;100522.44;;;3.78;100.00
13734;BME280;43298;52.560;13.508;2023-04-01T23:39:31;100514.81;;;3.75;100.00
13734;BME280;43298;52.560;13.508;2023-04-01T23:42:05;100526.78;;;3.73;100.00
13734;BME280;43298;52.560;13.508;2023-04-01T23:44:34;100531.84;;;3.76;100.00
13734;BME280;43298;52.560;13.508;2023-04-01T23:47:01;100541.25;;;3.72;100.00
13734;BME280;43298;52.560;13.508;2023-04-01T23:49:37;100540.44;;;3.72;100.00
13734;BME280;43298;52.560;13.508;2023-04-01T23:52:27;100547.22;;;3.73;100.00
13734;BME280;43298;52.560;13.508;2023-04-01T23:55:47;100549.03;;;3.68;100.00
13734;BME280;43298;52.560;13.508;2023-04-01T23:58:26;100554.19;;;3.65;100.00
